This is the latest recevied weather packets stored in our database for station/object N3TJJ-11. If no packets are shown the sender has not sent any weather packets the latest 10 day(s).
| Time | Temp. | Humidity | Pressure | Rain* | Wind** | Luminosity | Snow |
|---|---|---|---|---|---|---|---|
| 1777840548 | 13.33° C | 36% | 1011.9 hPa | 0 mm | - | - | - |
| 1777840429 | 13.33° C | 37% | 1011.9 hPa | 0 mm | - | - | - |
| 1777839828 | 13.89° C | 35% | 1012 hPa | 0 mm | - | - | - |
| 1777839229 | 13.33° C | 39% | 1011.8 hPa | 0 mm | - | - | - |
| 1777839108 | 13.33° C | 38% | 1012 hPa | 0 mm | - | - | - |
| 1777838629 | 12.78° C | 35% | 1012.2 hPa | 0 mm | - | - | - |
| 1777838388 | 13.33° C | 39% | 1012.2 hPa | 0 mm | - | - | - |
| 1777838029 | 12.78° C | 40% | 1012.3 hPa | 0 mm | - | - | - |
| 1777837668 | 12.78° C | 37% | 1012.3 hPa | 0 mm | - | - | - |
| 1777837429 | 12.78° C | 37% | 1012.3 hPa | 0 mm | - | - | - |
| 1777836948 | 12.78° C | 38% | 1012.5 hPa | 0 mm | - | - | - |
| 1777836829 | 12.78° C | 38% | 1012.5 hPa | 0 mm | - | - | - |
| 1777836228 | 12.22° C | 37% | 1012.6 hPa | 0 mm | - | - | - |
| 1777835630 | 12.22° C | 40% | 1012.6 hPa | 0 mm | - | - | - |
| 1777835508 | 12.22° C | 39% | 1012.7 hPa | 0 mm | - | - | - |
| 1777835029 | 12.22° C | 38% | 1012.7 hPa | 0 mm | - | - | - |
| 1777834788 | 12.78° C | 38% | 1012.8 hPa | 0 mm | - | - | - |
| 1777834430 | 12.22° C | 39% | 1012.8 hPa | 0 mm | - | - | - |
| 1777834068 | 12.22° C | 41% | 1012.9 hPa | 0 mm | - | - | - |
| 1777833829 | 11.67° C | 43% | 1012.9 hPa | 0 mm | - | - | - |
| 1777833348 | 11.11° C | 42% | 1013.1 hPa | 0 mm | - | - | - |
| 1777833229 | 11.11° C | 40% | 1013.2 hPa | 0 mm | - | - | - |
| 1777832628 | 11.67° C | 39% | 1013.2 hPa | 0 mm | - | - | - |
| 1777832029 | 11.67° C | 41% | 1013.1 hPa | 0 mm | - | - | - |
| 1777831908 | 11.67° C | 41% | 1013 hPa | 0 mm | - | - | - |
* Rain latest hour (hover to see other rain measurements)
** Current wind speed in m/s (hover to see current wind gust speed)